Terminal Aerodrome Forecast
Issued by NWS Twin Cities, MN

Home | Current Version | Previous Version | Text Only | Print | Product List | Glossary Off
Versions: 1 2 3 4 5 6 7 8 9 10 11 12 13 14 15 16 17

000
FTUS43 KMPX 011700
TAFSTC
TAF
KSTC 011721Z 0118/0218 30010G16KT P6SM FEW110
     FM020000 26004KT P6SM SCT050 BKN090
     FM021600 26010KT P6SM FEW250=

USA.gov is the U.S. government's official web portal to all federal, state and local government web resources and services.